sensor_id;sensor_type;location;lat;lon;timestamp;pressure;altitude;pressure_sealevel;temperature;humidity
21779;BME280;11050;52.222;20.916;2023-03-25T00:00:59;98962.59;;;11.69;100.00
21779;BME280;11050;52.222;20.916;2023-03-25T00:03:28;98943.34;;;11.64;100.00
21779;BME280;11050;52.222;20.916;2023-03-25T00:05:56;98950.25;;;11.66;100.00
21779;BME280;11050;52.222;20.916;2023-03-25T00:08:26;98934.88;;;11.65;100.00
21779;BME280;11050;52.222;20.916;2023-03-25T00:10:54;98937.63;;;11.65;100.00
21779;BME280;11050;52.222;20.916;2023-03-25T00:13:21;98942.38;;;11.55;100.00
21779;BME280;11050;52.222;20.916;2023-03-25T00:15:49;98952.22;;;11.61;100.00
21779;BME280;11050;52.222;20.916;2023-03-25T00:18:19;98929.75;;;11.54;100.00
21779;BME280;11050;52.222;20.916;2023-03-25T00:20:49;98941.19;;;11.61;100.00
21779;BME280;11050;52.222;20.916;2023-03-25T00:23:17;98953.03;;;11.61;100.00
21779;BME280;11050;52.222;20.916;2023-03-25T00:25:43;98943.72;;;11.57;100.00
21779;BME280;11050;52.222;20.916;2023-03-25T00:28:14;98934.63;;;11.57;100.00
21779;BME280;11050;52.222;20.916;2023-03-25T00:30:42;98945.41;;;11.53;100.00
21779;BME280;11050;52.222;20.916;2023-03-25T00:33:09;98963.03;;;11.52;100.00
21779;BME280;11050;52.222;20.916;2023-03-25T00:35:39;98967.19;;;11.50;100.00
21779;BME280;11050;52.222;20.916;2023-03-25T00:38:13;98942.53;;;11.39;100.00
21779;BME280;11050;52.222;20.916;2023-03-25T00:40:39;98950.22;;;11.42;100.00
21779;BME280;11050;52.222;20.916;2023-03-25T00:43:05;98943.16;;;11.36;100.00
21779;BME280;11050;52.222;20.916;2023-03-25T00:45:33;98949.56;;;11.27;100.00
21779;BME280;11050;52.222;20.916;2023-03-25T00:47:59;98947.16;;;11.20;100.00
21779;BME280;11050;52.222;20.916;2023-03-25T00:50:25;98942.53;;;11.16;100.00
21779;BME280;11050;52.222;20.916;2023-03-25T00:52:51;98940.66;;;11.11;100.00
21779;BME280;11050;52.222;20.916;2023-03-25T00:55:18;98940.19;;;11.04;100.00
21779;BME280;11050;52.222;20.916;2023-03-25T00:57:45;98946.22;;;11.06;100.00
21779;BME280;11050;52.222;20.916;2023-03-25T01:00:16;98945.72;;;10.99;100.00
21779;BME280;11050;52.222;20.916;2023-03-25T01:02:43;98946.91;;;10.88;100.00
21779;BME280;11050;52.222;20.916;2023-03-25T01:05:10;98947.22;;;10.87;100.00
21779;BME280;11050;52.222;20.916;2023-03-25T01:07:39;98945.34;;;10.82;100.00
21779;BME280;11050;52.222;20.916;2023-03-25T01:10:07;98949.25;;;10.76;100.00
21779;BME280;11050;52.222;20.916;2023-03-25T01:12:33;98947.88;;;10.74;100.00
21779;BME280;11050;52.222;20.916;2023-03-25T01:14:59;98938.63;;;10.65;100.00
21779;BME280;11050;52.222;20.916;2023-03-25T01:17:25;98954.56;;;10.63;100.00
21779;BME280;11050;52.222;20.916;2023-03-25T01:19:51;98952.66;;;10.58;100.00
21779;BME280;11050;52.222;20.916;2023-03-25T01:22:17;98951.06;;;10.57;100.00
21779;BME280;11050;52.222;20.916;2023-03-25T01:24:44;98946.09;;;10.54;100.00
21779;BME280;11050;52.222;20.916;2023-03-25T01:27:09;98923.22;;;10.35;100.00
21779;BME280;11050;52.222;20.916;2023-03-25T01:29:35;98936.94;;;10.35;100.00
21779;BME280;11050;52.222;20.916;2023-03-25T01:32:01;98924.91;;;10.26;100.00
21779;BME280;11050;52.222;20.916;2023-03-25T01:34:27;98928.53;;;10.21;100.00
21779;BME280;11050;52.222;20.916;2023-03-25T01:36:53;98930.97;;;10.23;100.00
21779;BME280;11050;52.222;20.916;2023-03-25T01:39:20;98931.81;;;10.18;100.00
21779;BME280;11050;52.222;20.916;2023-03-25T01:41:49;98936.78;;;10.16;100.00
21779;BME280;11050;52.222;20.916;2023-03-25T01:46:49;98946.41;;;10.09;100.00
21779;BME280;11050;52.222;20.916;2023-03-25T01:49:42;98940.66;;;10.05;100.00
21779;BME280;11050;52.222;20.916;2023-03-25T01:52:13;98929.47;;;9.92;100.00
21779;BME280;11050;52.222;20.916;2023-03-25T01:54:43;98931.97;;;9.93;100.00
21779;BME280;11050;52.222;20.916;2023-03-25T01:57:13;98920.47;;;9.86;100.00
21779;BME280;11050;52.222;20.916;2023-03-25T01:59:43;98934.97;;;9.92;100.00
21779;BME280;11050;52.222;20.916;2023-03-25T02:02:10;98938.03;;;9.85;100.00
21779;BME280;11050;52.222;20.916;2023-03-25T02:04:56;98929.06;;;9.75;100.00
21779;BME280;11050;52.222;20.916;2023-03-25T02:07:43;98945.50;;;9.70;100.00
21779;BME280;11050;52.222;20.916;2023-03-25T02:10:12;98952.13;;;9.69;100.00
21779;BME280;11050;52.222;20.916;2023-03-25T02:12:38;98936.53;;;9.59;100.00
21779;BME280;11050;52.222;20.916;2023-03-25T02:15:07;98929.41;;;9.53;100.00
21779;BME280;11050;52.222;20.916;2023-03-25T02:27:22;98931.94;;;9.44;100.00
21779;BME280;11050;52.222;20.916;2023-03-25T02:33:26;98925.34;;;9.35;100.00
21779;BME280;11050;52.222;20.916;2023-03-25T02:47:18;98912.28;;;9.17;100.00
21779;BME280;11050;52.222;20.916;2023-03-25T02:49:55;98935.25;;;9.26;100.00
21779;BME280;11050;52.222;20.916;2023-03-25T02:52:33;98937.19;;;9.31;100.00
21779;BME280;11050;52.222;20.916;2023-03-25T02:55:07;98943.22;;;9.23;100.00
21779;BME280;11050;52.222;20.916;2023-03-25T02:57:40;98937.44;;;9.24;100.00
21779;BME280;11050;52.222;20.916;2023-03-25T03:00:10;98920.78;;;9.11;100.00
21779;BME280;11050;52.222;20.916;2023-03-25T03:03:03;98932.56;;;9.11;100.00
21779;BME280;11050;52.222;20.916;2023-03-25T03:05:48;98928.75;;;9.02;100.00
21779;BME280;11050;52.222;20.916;2023-03-25T03:11:36;98939.19;;;8.95;100.00
21779;BME280;11050;52.222;20.916;2023-03-25T03:26:56;98966.28;;;8.87;100.00
21779;BME280;11050;52.222;20.916;2023-03-25T03:29:43;98943.84;;;8.85;100.00
21779;BME280;11050;52.222;20.916;2023-03-25T03:35:01;98940.03;;;8.76;100.00
21779;BME280;11050;52.222;20.916;2023-03-25T03:37:59;98949.59;;;8.73;100.00
21779;BME280;11050;52.222;20.916;2023-03-25T03:40:28;98944.94;;;8.74;100.00
21779;BME280;11050;52.222;20.916;2023-03-25T03:43:02;98949.06;;;8.76;100.00
21779;BME280;11050;52.222;20.916;2023-03-25T03:45:37;98940.28;;;8.74;100.00
21779;BME280;11050;52.222;20.916;2023-03-25T03:48:14;98926.63;;;8.69;100.00
21779;BME280;11050;52.222;20.916;2023-03-25T03:50:51;98930.44;;;8.73;100.00
21779;BME280;11050;52.222;20.916;2023-03-25T03:53:33;98941.66;;;8.72;100.00
21779;BME280;11050;52.222;20.916;2023-03-25T03:56:17;98943.84;;;8.70;100.00
21779;BME280;11050;52.222;20.916;2023-03-25T03:58:49;98953.16;;;8.63;100.00
21779;BME280;11050;52.222;20.916;2023-03-25T04:01:39;98960.84;;;8.67;100.00
21779;BME280;11050;52.222;20.916;2023-03-25T04:04:16;98945.50;;;8.66;100.00
21779;BME280;11050;52.222;20.916;2023-03-25T04:07:09;98959.19;;;8.66;100.00
21779;BME280;11050;52.222;20.916;2023-03-25T04:12:23;98958.38;;;8.65;100.00
21779;BME280;11050;52.222;20.916;2023-03-25T04:14:49;98968.22;;;8.71;100.00
21779;BME280;11050;52.222;20.916;2023-03-25T04:17:15;98969.03;;;8.72;100.00
21779;BME280;11050;52.222;20.916;2023-03-25T04:19:41;98969.31;;;8.75;100.00
21779;BME280;11050;52.222;20.916;2023-03-25T04:22:16;98969.06;;;8.77;100.00
21779;BME280;11050;52.222;20.916;2023-03-25T04:24:43;98978.91;;;8.78;100.00
21779;BME280;11050;52.222;20.916;2023-03-25T04:27:09;98971.81;;;8.77;100.00
21779;BME280;11050;52.222;20.916;2023-03-25T04:29:38;98976.72;;;8.75;100.00
21779;BME280;11050;52.222;20.916;2023-03-25T04:32:10;98971.22;;;8.70;100.00
21779;BME280;11050;52.222;20.916;2023-03-25T04:34:37;98971.53;;;8.78;100.00
21779;BME280;11050;52.222;20.916;2023-03-25T04:37:04;98974.25;;;8.68;100.00
21779;BME280;11050;52.222;20.916;2023-03-25T04:39:29;98984.13;;;8.74;100.00
21779;BME280;11050;52.222;20.916;2023-03-25T04:41:57;98978.63;;;8.74;100.00
21779;BME280;11050;52.222;20.916;2023-03-25T04:44:31;98969.31;;;8.75;100.00
21779;BME280;11050;52.222;20.916;2023-03-25T04:47:06;98978.34;;;8.76;100.00
21779;BME280;11050;52.222;20.916;2023-03-25T04:49:36;98977.00;;;8.78;100.00
21779;BME280;11050;52.222;20.916;2023-03-25T04:52:02;98957.56;;;8.75;100.00
21779;BME280;11050;52.222;20.916;2023-03-25T04:54:28;98952.09;;;8.75;100.00
21779;BME280;11050;52.222;20.916;2023-03-25T04:56:54;98974.78;;;8.90;100.00
21779;BME280;11050;52.222;20.916;2023-03-25T04:59:21;98965.47;;;8.91;100.00
21779;BME280;11050;52.222;20.916;2023-03-25T05:01:48;98963.81;;;8.90;100.00
21779;BME280;11050;52.222;20.916;2023-03-25T05:04:16;98975.91;;;8.99;100.00
21779;BME280;11050;52.222;20.916;2023-03-25T05:06:45;98988.47;;;9.00;100.00
21779;BME280;11050;52.222;20.916;2023-03-25T05:09:18;98962.72;;;8.96;100.00
21779;BME280;11050;52.222;20.916;2023-03-25T05:11:45;98977.25;;;9.02;100.00
21779;BME280;11050;52.222;20.916;2023-03-25T05:14:13;98973.13;;;9.04;100.00
21779;BME280;11050;52.222;20.916;2023-03-25T05:16:39;98970.13;;;9.06;100.00
21779;BME280;11050;52.222;20.916;2023-03-25T05:19:06;98978.63;;;9.14;100.00
21779;BME280;11050;52.222;20.916;2023-03-25T05:21:34;98956.38;;;9.11;100.00
21779;BME280;11050;52.222;20.916;2023-03-25T05:24:04;98980.22;;;9.25;100.00
21779;BME280;11050;52.222;20.916;2023-03-25T05:26:33;98979.91;;;9.32;100.00
21779;BME280;11050;52.222;20.916;2023-03-25T05:29:05;98975.53;;;9.36;100.00
21779;BME280;11050;52.222;20.916;2023-03-25T05:31:33;98987.59;;;9.40;100.00
21779;BME280;11050;52.222;20.916;2023-03-25T05:33:59;98994.44;;;9.42;100.00
21779;BME280;11050;52.222;20.916;2023-03-25T05:36:26;98996.03;;;9.48;100.00
21779;BME280;11050;52.222;20.916;2023-03-25T05:38:53;98994.69;;;9.51;100.00
21779;BME280;11050;52.222;20.916;2023-03-25T05:41:21;98992.22;;;9.49;100.00
21779;BME280;11050;52.222;20.916;2023-03-25T05:43:48;99002.34;;;9.59;100.00
21779;BME280;11050;52.222;20.916;2023-03-25T05:46:18;98997.41;;;9.61;100.00
21779;BME280;11050;52.222;20.916;2023-03-25T05:48:45;98993.53;;;9.67;100.00
21779;BME280;11050;52.222;20.916;2023-03-25T05:51:14;99002.81;;;9.76;100.00
21779;BME280;11050;52.222;20.916;2023-03-25T05:53:46;98994.31;;;9.78;100.00
21779;BME280;11050;52.222;20.916;2023-03-25T05:56:17;98994.03;;;9.79;100.00
21779;BME280;11050;52.222;20.916;2023-03-25T05:58:48;98995.13;;;9.83;100.00
21779;BME280;11050;52.222;20.916;2023-03-25T06:01:15;98994.78;;;9.95;100.00
21779;BME280;11050;52.222;20.916;2023-03-25T06:03:43;98992.56;;;10.02;100.00
21779;BME280;11050;52.222;20.916;2023-03-25T06:06:14;99000.78;;;10.12;100.00
21779;BME280;11050;52.222;20.916;2023-03-25T06:08:48;99001.84;;;10.16;100.00
21779;BME280;11050;52.222;20.916;2023-03-25T06:11:16;98999.09;;;10.16;100.00
21779;BME280;11050;52.222;20.916;2023-03-25T06:13:45;99009.47;;;10.24;100.00
21779;BME280;11050;52.222;20.916;2023-03-25T06:16:23;99002.06;;;10.24;100.00
21779;BME280;11050;52.222;20.916;2023-03-25T06:18:54;98999.56;;;10.28;100.00
21779;BME280;11050;52.222;20.916;2023-03-25T06:21:25;99011.88;;;10.40;100.00
21779;BME280;11050;52.222;20.916;2023-03-25T06:23:52;99002.22;;;10.43;100.00
21779;BME280;11050;52.222;20.916;2023-03-25T06:26:21;99004.38;;;10.51;100.00
21779;BME280;11050;52.222;20.916;2023-03-25T06:28:48;98993.94;;;10.53;100.00
21779;BME280;11050;52.222;20.916;2023-03-25T06:31:20;99001.28;;;10.63;100.00
21779;BME280;11050;52.222;20.916;2023-03-25T06:33:49;98999.59;;;10.67;100.00
21779;BME280;11050;52.222;20.916;2023-03-25T06:36:16;99008.31;;;10.74;100.00
21779;BME280;11050;52.222;20.916;2023-03-25T06:38:48;99015.44;;;10.80;100.00
21779;BME280;11050;52.222;20.916;2023-03-25T06:41:17;99014.00;;;10.87;100.00
21779;BME280;11050;52.222;20.916;2023-03-25T06:43:46;98996.38;;;10.88;100.00
21779;BME280;11050;52.222;20.916;2023-03-25T06:46:14;99003.72;;;10.98;100.00
21779;BME280;11050;52.222;20.916;2023-03-25T06:48:40;99011.66;;;11.04;100.00
21779;BME280;11050;52.222;20.916;2023-03-25T06:51:06;99008.28;;;11.12;100.00
21779;BME280;11050;52.222;20.916;2023-03-25T06:53:32;99001.66;;;11.13;100.00
21779;BME280;11050;52.222;20.916;2023-03-25T06:55:57;99007.09;;;11.18;100.00
21779;BME280;11050;52.222;20.916;2023-03-25T06:58:24;99006.56;;;11.21;100.00
21779;BME280;11050;52.222;20.916;2023-03-25T07:00:55;98999.59;;;11.29;100.00
21779;BME280;11050;52.222;20.916;2023-03-25T07:03:21;99003.13;;;11.34;100.00
21779;BME280;11050;52.222;20.916;2023-03-25T07:05:48;98994.81;;;11.39;100.00
21779;BME280;11050;52.222;20.916;2023-03-25T07:08:14;99002.00;;;11.35;100.00
21779;BME280;11050;52.222;20.916;2023-03-25T07:10:40;98994.34;;;11.32;100.00
21779;BME280;11050;52.222;20.916;2023-03-25T07:13:08;98983.66;;;11.26;100.00
21779;BME280;11050;52.222;20.916;2023-03-25T07:15:34;98999.25;;;11.35;100.00
21779;BME280;11050;52.222;20.916;2023-03-25T07:18:00;98997.56;;;11.39;100.00
21779;BME280;11050;52.222;20.916;2023-03-25T07:20:26;98999.31;;;11.30;100.00
21779;BME280;11050;52.222;20.916;2023-03-25T07:22:53;98994.44;;;11.22;100.00
21779;BME280;11050;52.222;20.916;2023-03-25T07:25:20;99001.69;;;11.37;100.00
21779;BME280;11050;52.222;20.916;2023-03-25T07:27:46;99009.00;;;11.52;100.00
21779;BME280;11050;52.222;20.916;2023-03-25T07:30:12;99000.44;;;11.53;100.00
21779;BME280;11050;52.222;20.916;2023-03-25T07:32:38;98999.28;;;11.59;100.00
21779;BME280;11050;52.222;20.916;2023-03-25T07:35:04;98998.16;;;11.65;100.00
21779;BME280;11050;52.222;20.916;2023-03-25T07:37:31;98983.00;;;11.63;100.00
21779;BME280;11050;52.222;20.916;2023-03-25T07:39:56;99001.06;;;11.74;100.00
21779;BME280;11050;52.222;20.916;2023-03-25T07:42:22;99020.03;;;11.75;100.00
21779;BME280;11050;52.222;20.916;2023-03-25T07:44:48;99008.69;;;11.82;100.00
21779;BME280;11050;52.222;20.916;2023-03-25T07:47:13;98991.97;;;11.73;100.00
21779;BME280;11050;52.222;20.916;2023-03-25T07:49:39;99011.97;;;11.84;100.00
21779;BME280;11050;52.222;20.916;2023-03-25T07:52:06;99001.88;;;11.74;100.00
21779;BME280;11050;52.222;20.916;2023-03-25T07:54:32;99012.00;;;11.79;100.00
21779;BME280;11050;52.222;20.916;2023-03-25T07:56:57;99008.53;;;11.92;100.00
21779;BME280;11050;52.222;20.916;2023-03-25T07:59:23;99017.22;;;12.04;100.00
21779;BME280;11050;52.222;20.916;2023-03-25T08:01:50;99024.34;;;12.05;100.00
21779;BME280;11050;52.222;20.916;2023-03-25T08:04:16;99021.31;;;12.06;100.00
21779;BME280;11050;52.222;20.916;2023-03-25T08:06:41;99010.53;;;12.10;100.00
21779;BME280;11050;52.222;20.916;2023-03-25T08:09:07;99010.97;;;12.17;100.00
21779;BME280;11050;52.222;20.916;2023-03-25T08:11:33;98986.34;;;12.25;100.00
21779;BME280;11050;52.222;20.916;2023-03-25T08:13:59;99008.03;;;12.51;100.00
21779;BME280;11050;52.222;20.916;2023-03-25T08:16:24;99009.81;;;12.60;100.00
21779;BME280;11050;52.222;20.916;2023-03-25T08:18:50;99008.47;;;12.76;100.00
21779;BME280;11050;52.222;20.916;2023-03-25T08:21:19;99023.13;;;12.90;100.00
21779;BME280;11050;52.222;20.916;2023-03-25T08:23:54;99008.75;;;12.93;100.00
21779;BME280;11050;52.222;20.916;2023-03-25T08:26:26;99013.13;;;12.94;100.00
21779;BME280;11050;52.222;20.916;2023-03-25T08:28:53;99006.78;;;12.94;100.00
21779;BME280;11050;52.222;20.916;2023-03-25T08:31:23;99012.91;;;13.09;100.00
21779;BME280;11050;52.222;20.916;2023-03-25T08:33:49;99004.47;;;13.19;100.00
21779;BME280;11050;52.222;20.916;2023-03-25T08:36:15;99001.81;;;13.28;100.00
21779;BME280;11050;52.222;20.916;2023-03-25T08:38:45;99002.22;;;13.35;100.00
21779;BME280;11050;52.222;20.916;2023-03-25T08:41:11;98995.91;;;13.48;100.00
21779;BME280;11050;52.222;20.916;2023-03-25T08:43:38;99006.38;;;13.78;97.87
21779;BME280;11050;52.222;20.916;2023-03-25T08:46:04;98994.09;;;13.98;97.49
21779;BME280;11050;52.222;20.916;2023-03-25T08:48:30;98997.66;;;14.25;96.20
21779;BME280;11050;52.222;20.916;2023-03-25T08:50:57;98999.06;;;14.50;93.94
21779;BME280;11050;52.222;20.916;2023-03-25T08:53:23;99001.59;;;14.60;90.99
21779;BME280;11050;52.222;20.916;2023-03-25T08:55:52;98993.59;;;14.72;90.28
21779;BME280;11050;52.222;20.916;2023-03-25T08:58:19;99000.75;;;14.95;87.96
21779;BME280;11050;52.222;20.916;2023-03-25T09:00:48;98995.59;;;15.02;88.19
21779;BME280;11050;52.222;20.916;2023-03-25T09:03:14;99001.81;;;15.30;86.22
21779;BME280;11050;52.222;20.916;2023-03-25T09:05:40;98989.72;;;15.48;84.31
21779;BME280;11050;52.222;20.916;2023-03-25T09:08:06;99008.09;;;15.75;82.19
21779;BME280;11050;52.222;20.916;2023-03-25T09:10:33;98996.66;;;16.07;81.94
21779;BME280;11050;52.222;20.916;2023-03-25T09:12:58;99010.31;;;16.60;80.68
21779;BME280;11050;52.222;20.916;2023-03-25T09:15:24;99009.38;;;16.81;77.45
21779;BME280;11050;52.222;20.916;2023-03-25T09:17:51;99009.34;;;17.16;75.63
21779;BME280;11050;52.222;20.916;2023-03-25T09:20:16;99010.31;;;17.20;76.03
21779;BME280;11050;52.222;20.916;2023-03-25T09:22:43;99006.09;;;17.14;75.42
21779;BME280;11050;52.222;20.916;2023-03-25T09:25:09;99002.16;;;17.15;74.76
21779;BME280;11050;52.222;20.916;2023-03-25T09:27:35;99003.47;;;17.08;75.18
21779;BME280;11050;52.222;20.916;2023-03-25T09:30:03;98992.38;;;17.00;72.12
21779;BME280;11050;52.222;20.916;2023-03-25T09:32:29;99003.00;;;16.81;71.05
21779;BME280;11050;52.222;20.916;2023-03-25T09:34:55;99003.47;;;16.91;70.52
21779;BME280;11050;52.222;20.916;2023-03-25T09:37:22;99009.34;;;16.90;68.35
21779;BME280;11050;52.222;20.916;2023-03-25T09:39:48;98999.41;;;16.89;68.70
21779;BME280;11050;52.222;20.916;2023-03-25T09:50:40;98995.13;;;17.08;69.51
21779;BME280;11050;52.222;20.916;2023-03-25T09:54:01;98994.31;;;17.17;69.91
21779;BME280;11050;52.222;20.916;2023-03-25T09:56:34;98996.91;;;17.22;68.33
21779;BME280;11050;52.222;20.916;2023-03-25T09:59:22;99006.25;;;17.17;68.28
21779;BME280;11050;52.222;20.916;2023-03-25T10:02:31;99011.94;;;17.21;69.21
21779;BME280;11050;52.222;20.916;2023-03-25T10:05:25;99007.69;;;17.32;67.59
21779;BME280;11050;52.222;20.916;2023-03-25T10:08:19;98999.56;;;17.10;67.06
21779;BME280;11050;52.222;20.916;2023-03-25T10:11:06;98999.56;;;17.10;68.82
21779;BME280;11050;52.222;20.916;2023-03-25T10:14:00;98993.19;;;17.18;67.53
21779;BME280;11050;52.222;20.916;2023-03-25T10:16:59;98994.00;;;17.10;67.96
21779;BME280;11050;52.222;20.916;2023-03-25T10:20:10;98986.16;;;17.29;67.97
21779;BME280;11050;52.222;20.916;2023-03-25T10:23:16;98970.97;;;17.72;67.33
21779;BME280;11050;52.222;20.916;2023-03-25T10:25:46;98987.56;;;17.98;65.63
21779;BME280;11050;52.222;20.916;2023-03-25T10:28:21;98985.69;;;18.11;63.62
21779;BME280;11050;52.222;20.916;2023-03-25T10:30:52;98978.38;;;18.06;63.45
21779;BME280;11050;52.222;20.916;2023-03-25T10:33:38;98966.44;;;18.06;63.79
21779;BME280;11050;52.222;20.916;2023-03-25T10:36:14;98962.41;;;17.94;63.41
21779;BME280;11050;52.222;20.916;2023-03-25T10:38:47;98957.41;;;18.09;61.02
21779;BME280;11050;52.222;20.916;2023-03-25T10:41:32;98967.97;;;17.94;60.32
21779;BME280;11050;52.222;20.916;2023-03-25T10:44:09;98968.59;;;18.00;60.47
21779;BME280;11050;52.222;20.916;2023-03-25T10:46:50;98955.25;;;18.14;59.50
21779;BME280;11050;52.222;20.916;2023-03-25T10:49:26;98965.53;;;18.51;58.91
21779;BME280;11050;52.222;20.916;2023-03-25T10:51:54;98958.25;;;18.79;56.02
21779;BME280;11050;52.222;20.916;2023-03-25T10:54:31;98962.78;;;18.84;53.89
21779;BME280;11050;52.222;20.916;2023-03-25T10:57:02;98963.38;;;18.89;51.23
21779;BME280;11050;52.222;20.916;2023-03-25T10:59:44;98950.94;;;19.08;51.89
21779;BME280;11050;52.222;20.916;2023-03-25T11:02:22;98953.69;;;18.75;51.86
21779;BME280;11050;52.222;20.916;2023-03-25T11:05:00;98955.88;;;18.40;53.92
21779;BME280;11050;52.222;20.916;2023-03-25T11:07:31;98949.88;;;18.38;55.20
21779;BME280;11050;52.222;20.916;2023-03-25T11:10:26;98936.25;;;18.45;55.13
21779;BME280;11050;52.222;20.916;2023-03-25T11:12:54;98940.47;;;18.51;55.72
21779;BME280;11050;52.222;20.916;2023-03-25T11:15:28;98935.53;;;18.89;55.83
21779;BME280;11050;52.222;20.916;2023-03-25T11:18:33;98938.81;;;19.57;52.86
21779;BME280;11050;52.222;20.916;2023-03-25T11:21:10;98927.66;;;19.93;50.47
21779;BME280;11050;52.222;20.916;2023-03-25T11:23:46;98936.13;;;20.09;49.52
21779;BME280;11050;52.222;20.916;2023-03-25T11:26:29;98920.34;;;20.13;46.78
21779;BME280;11050;52.222;20.916;2023-03-25T11:29:18;98907.41;;;20.44;46.44
21779;BME280;11050;52.222;20.916;2023-03-25T11:32:11;98915.28;;;20.66;45.33
21779;BME280;11050;52.222;20.916;2023-03-25T11:34:37;98914.25;;;20.87;44.81
21779;BME280;11050;52.222;20.916;2023-03-25T11:37:22;98898.00;;;20.76;44.55
21779;BME280;11050;52.222;20.916;2023-03-25T11:39:54;98916.59;;;21.12;43.45
21779;BME280;11050;52.222;20.916;2023-03-25T11:42:32;98897.72;;;21.37;42.75
21779;BME280;11050;52.222;20.916;2023-03-25T11:45:00;98891.59;;;21.47;42.68
21779;BME280;11050;52.222;20.916;2023-03-25T11:47:37;98909.59;;;21.18;43.37
21779;BME280;11050;52.222;20.916;2023-03-25T11:50:06;98879.00;;;20.54;44.83
21779;BME280;11050;52.222;20.916;2023-03-25T11:52:45;98889.28;;;20.38;45.89
21779;BME280;11050;52.222;20.916;2023-03-25T11:55:30;98894.44;;;19.88;47.00
21779;BME280;11050;52.222;20.916;2023-03-25T11:57:59;98898.13;;;19.32;48.63
21779;BME280;11050;52.222;20.916;2023-03-25T12:00:39;98893.19;;;18.84;50.44
21779;BME280;11050;52.222;20.916;2023-03-25T12:03:21;98877.63;;;18.50;51.49
21779;BME280;11050;52.222;20.916;2023-03-25T12:08:57;98871.50;;;18.16;54.64
21779;BME280;11050;52.222;20.916;2023-03-25T12:11:35;98871.22;;;18.29;54.41
21779;BME280;11050;52.222;20.916;2023-03-25T12:17:26;98864.63;;;19.08;51.78
21779;BME280;11050;52.222;20.916;2023-03-25T12:25:49;98858.38;;;22.08;41.71
21779;BME280;11050;52.222;20.916;2023-03-25T12:37:39;98863.97;;;20.07;46.29
21779;BME280;11050;52.222;20.916;2023-03-25T12:40:31;98855.63;;;19.35;48.91
21779;BME280;11050;52.222;20.916;2023-03-25T12:43:10;98852.34;;;18.76;51.43
21779;BME280;11050;52.222;20.916;2023-03-25T12:49:00;98844.75;;;17.82;54.77
21779;BME280;11050;52.222;20.916;2023-03-25T13:00:24;98840.97;;;14.26;96.92
21779;BME280;11050;52.222;20.916;2023-03-25T13:11:21;98841.47;;;13.70;100.00
21779;BME280;11050;52.222;20.916;2023-03-25T13:13:54;98843.50;;;13.65;100.00
21779;BME280;11050;52.222;20.916;2023-03-25T13:16:26;98837.69;;;13.66;100.00
21779;BME280;11050;52.222;20.916;2023-03-25T13:19:16;98832.22;;;13.75;100.00
21779;BME280;11050;52.222;20.916;2023-03-25T13:21:50;98831.00;;;13.81;100.00
21779;BME280;11050;52.222;20.916;2023-03-25T13:24:26;98833.53;;;13.91;100.00
21779;BME280;11050;52.222;20.916;2023-03-25T13:26:58;98821.47;;;13.87;100.00
21779;BME280;11050;52.222;20.916;2023-03-25T13:29:34;98827.50;;;13.89;100.00
21779;BME280;11050;52.222;20.916;2023-03-25T13:32:10;98833.59;;;13.99;100.00
21779;BME280;11050;52.222;20.916;2023-03-25T13:34:43;98813.47;;;13.99;100.00
21779;BME280;11050;52.222;20.916;2023-03-25T13:37:30;98803.66;;;14.15;100.00
21779;BME280;11050;52.222;20.916;2023-03-25T13:45:17;98795.44;;;14.68;99.00
21779;BME280;11050;52.222;20.916;2023-03-25T13:48:03;98787.81;;;14.73;100.00
21779;BME280;11050;52.222;20.916;2023-03-25T13:50:32;98804.03;;;14.97;97.56
21779;BME280;11050;52.222;20.916;2023-03-25T13:56:27;98810.84;;;15.39;91.78
21779;BME280;11050;52.222;20.916;2023-03-25T14:11:39;98803.66;;;17.00;81.17
21779;BME280;11050;52.222;20.916;2023-03-25T14:14:14;98820.50;;;18.32;74.26
21779;BME280;11050;52.222;20.916;2023-03-25T14:16:49;98814.34;;;20.01;66.26
21779;BME280;11050;52.222;20.916;2023-03-25T14:19:26;98821.59;;;21.59;56.58
21779;BME280;11050;52.222;20.916;2023-03-25T14:21:54;98827.41;;;22.54;50.53
21779;BME280;11050;52.222;20.916;2023-03-25T14:24:31;98829.22;;;22.63;49.32
21779;BME280;11050;52.222;20.916;2023-03-25T14:27:15;98809.53;;;23.01;48.62
21779;BME280;11050;52.222;20.916;2023-03-25T14:30:16;98814.72;;;22.41;50.07
21779;BME280;11050;52.222;20.916;2023-03-25T14:32:43;98824.34;;;22.59;46.57
21779;BME280;11050;52.222;20.916;2023-03-25T14:43:37;98834.84;;;20.44;51.67
21779;BME280;11050;52.222;20.916;2023-03-25T14:57:15;98837.44;;;15.48;63.11
21779;BME280;11050;52.222;20.916;2023-03-25T14:59:49;98877.22;;;14.69;66.37
21779;BME280;11050;52.222;20.916;2023-03-25T15:02:29;98855.50;;;13.96;69.43
21779;BME280;11050;52.222;20.916;2023-03-25T15:05:39;98872.16;;;13.42;74.09
21779;BME280;11050;52.222;20.916;2023-03-25T15:10:44;98908.16;;;12.59;84.41
21779;BME280;11050;52.222;20.916;2023-03-25T15:13:25;98894.03;;;12.09;90.74
21779;BME280;11050;52.222;20.916;2023-03-25T15:16:01;98890.31;;;11.82;94.32
21779;BME280;11050;52.222;20.916;2023-03-25T15:24:03;98862.22;;;11.19;100.00
21779;BME280;11050;52.222;20.916;2023-03-25T15:35:44;98868.72;;;10.76;100.00
21779;BME280;11050;52.222;20.916;2023-03-25T15:54:59;98837.75;;;11.60;100.00
21779;BME280;11050;52.222;20.916;2023-03-25T16:00:23;98834.75;;;11.80;100.00
21779;BME280;11050;52.222;20.916;2023-03-25T16:05:37;98840.91;;;11.72;100.00
21779;BME280;11050;52.222;20.916;2023-03-25T16:08:10;98835.59;;;11.57;100.00
21779;BME280;11050;52.222;20.916;2023-03-25T16:10:40;98838.47;;;11.46;100.00